sensor_id;sensor_type;location;lat;lon;timestamp;temperature;humidity
25923;DHT22;13725;51.170;4.442;2023-06-24T00:01:50;19.20;99.90
25923;DHT22;13725;51.170;4.442;2023-06-24T00:04:16;19.10;99.90
25923;DHT22;13725;51.170;4.442;2023-06-24T00:06:44;19.10;99.90
25923;DHT22;13725;51.170;4.442;2023-06-24T00:09:10;19.10;99.90
25923;DHT22;13725;51.170;4.442;2023-06-24T00:11:36;19.10;99.90
25923;DHT22;13725;51.170;4.442;2023-06-24T00:14:01;19.00;99.90
25923;DHT22;13725;51.170;4.442;2023-06-24T00:16:27;19.00;99.90
25923;DHT22;13725;51.170;4.442;2023-06-24T00:18:57;18.90;99.90
25923;DHT22;13725;51.170;4.442;2023-06-24T00:21:24;18.90;99.90
25923;DHT22;13725;51.170;4.442;2023-06-24T00:23:56;18.80;99.90
25923;DHT22;13725;51.170;4.442;2023-06-24T00:26:23;18.80;99.90
25923;DHT22;13725;51.170;4.442;2023-06-24T00:28:48;18.70;99.90
25923;DHT22;13725;51.170;4.442;2023-06-24T00:31:15;18.70;99.90
25923;DHT22;13725;51.170;4.442;2023-06-24T00:33:41;18.70;99.90
25923;DHT22;13725;51.170;4.442;2023-06-24T00:36:07;18.60;99.90
25923;DHT22;13725;51.170;4.442;2023-06-24T00:38:37;18.60;99.90
25923;DHT22;13725;51.170;4.442;2023-06-24T00:41:04;18.60;99.90
25923;DHT22;13725;51.170;4.442;2023-06-24T00:43:30;18.50;99.90
25923;DHT22;13725;51.170;4.442;2023-06-24T00:45:57;18.50;99.90
25923;DHT22;13725;51.170;4.442;2023-06-24T00:48:24;18.50;99.90
25923;DHT22;13725;51.170;4.442;2023-06-24T00:50:50;18.50;99.90
25923;DHT22;13725;51.170;4.442;2023-06-24T00:53:17;18.40;99.90
25923;DHT22;13725;51.170;4.442;2023-06-24T00:55:44;18.40;99.90
25923;DHT22;13725;51.170;4.442;2023-06-24T00:58:12;18.30;99.90
25923;DHT22;13725;51.170;4.442;2023-06-24T01:00:45;18.30;99.90
25923;DHT22;13725;51.170;4.442;2023-06-24T01:03:12;18.30;99.90
25923;DHT22;13725;51.170;4.442;2023-06-24T01:05:43;18.30;99.90
25923;DHT22;13725;51.170;4.442;2023-06-24T01:08:10;18.30;99.90
25923;DHT22;13725;51.170;4.442;2023-06-24T01:10:41;18.20;99.90
25923;DHT22;13725;51.170;4.442;2023-06-24T01:13:07;18.20;99.90
25923;DHT22;13725;51.170;4.442;2023-06-24T01:15:34;18.10;99.90
25923;DHT22;13725;51.170;4.442;2023-06-24T01:18:24;18.10;99.90
25923;DHT22;13725;51.170;4.442;2023-06-24T01:21:01;18.10;99.90
25923;DHT22;13725;51.170;4.442;2023-06-24T01:24:03;18.00;99.90
25923;DHT22;13725;51.170;4.442;2023-06-24T01:30:09;17.90;99.90
25923;DHT22;13725;51.170;4.442;2023-06-24T01:32:44;17.90;99.90
25923;DHT22;13725;51.170;4.442;2023-06-24T01:35:20;17.90;99.90
25923;DHT22;13725;51.170;4.442;2023-06-24T01:37:49;17.80;99.90
25923;DHT22;13725;51.170;4.442;2023-06-24T01:40:47;17.80;99.90
25923;DHT22;13725;51.170;4.442;2023-06-24T01:43:13;17.80;99.90
25923;DHT22;13725;51.170;4.442;2023-06-24T01:45:42;17.80;99.90
25923;DHT22;13725;51.170;4.442;2023-06-24T01:48:13;17.70;99.90
25923;DHT22;13725;51.170;4.442;2023-06-24T01:50:43;17.70;99.90
25923;DHT22;13725;51.170;4.442;2023-06-24T01:53:11;17.60;99.90
25923;DHT22;13725;51.170;4.442;2023-06-24T01:55:41;17.70;99.90
25923;DHT22;13725;51.170;4.442;2023-06-24T01:58:08;17.60;99.90
25923;DHT22;13725;51.170;4.442;2023-06-24T02:00:35;17.50;99.90
25923;DHT22;13725;51.170;4.442;2023-06-24T02:03:04;17.60;99.90
25923;DHT22;13725;51.170;4.442;2023-06-24T02:05:31;17.70;99.90
25923;DHT22;13725;51.170;4.442;2023-06-24T02:07:58;17.60;99.90
25923;DHT22;13725;51.170;4.442;2023-06-24T02:10:26;17.50;99.90
25923;DHT22;13725;51.170;4.442;2023-06-24T02:12:54;17.40;99.90
25923;DHT22;13725;51.170;4.442;2023-06-24T02:15:20;17.50;99.90
25923;DHT22;13725;51.170;4.442;2023-06-24T02:17:50;17.40;99.90
25923;DHT22;13725;51.170;4.442;2023-06-24T02:20:17;17.40;99.90
25923;DHT22;13725;51.170;4.442;2023-06-24T02:22:45;17.40;99.90
25923;DHT22;13725;51.170;4.442;2023-06-24T02:25:12;17.40;99.90
25923;DHT22;13725;51.170;4.442;2023-06-24T02:27:39;17.40;99.90
25923;DHT22;13725;51.170;4.442;2023-06-24T02:30:06;17.30;99.90
25923;DHT22;13725;51.170;4.442;2023-06-24T02:32:33;17.30;99.90
25923;DHT22;13725;51.170;4.442;2023-06-24T02:35:01;17.30;99.90
25923;DHT22;13725;51.170;4.442;2023-06-24T02:37:28;17.20;99.90
25923;DHT22;13725;51.170;4.442;2023-06-24T02:39:53;17.20;99.90
25923;DHT22;13725;51.170;4.442;2023-06-24T02:42:19;17.30;99.90
25923;DHT22;13725;51.170;4.442;2023-06-24T02:44:46;17.10;99.90
25923;DHT22;13725;51.170;4.442;2023-06-24T02:47:13;17.20;99.90
25923;DHT22;13725;51.170;4.442;2023-06-24T02:49:42;17.10;99.90
25923;DHT22;13725;51.170;4.442;2023-06-24T02:52:12;17.10;99.90
25923;DHT22;13725;51.170;4.442;2023-06-24T02:54:39;17.10;99.90
25923;DHT22;13725;51.170;4.442;2023-06-24T02:57:21;17.10;99.90
25923;DHT22;13725;51.170;4.442;2023-06-24T03:00:07;17.00;99.90
25923;DHT22;13725;51.170;4.442;2023-06-24T03:02:59;17.00;99.90
25923;DHT22;13725;51.170;4.442;2023-06-24T03:05:25;17.00;99.90
25923;DHT22;13725;51.170;4.442;2023-06-24T03:07:53;17.00;99.90
25923;DHT22;13725;51.170;4.442;2023-06-24T03:10:23;17.00;99.90
25923;DHT22;13725;51.170;4.442;2023-06-24T03:12:49;17.00;99.90
25923;DHT22;13725;51.170;4.442;2023-06-24T03:15:15;17.00;99.90
25923;DHT22;13725;51.170;4.442;2023-06-24T03:17:41;17.00;99.90
25923;DHT22;13725;51.170;4.442;2023-06-24T03:20:07;16.90;99.90
25923;DHT22;13725;51.170;4.442;2023-06-24T03:22:34;16.90;99.90
25923;DHT22;13725;51.170;4.442;2023-06-24T03:25:01;17.00;99.90
25923;DHT22;13725;51.170;4.442;2023-06-24T03:27:27;16.90;99.90
25923;DHT22;13725;51.170;4.442;2023-06-24T03:29:53;16.90;99.90
25923;DHT22;13725;51.170;4.442;2023-06-24T03:32:19;16.90;99.90
25923;DHT22;13725;51.170;4.442;2023-06-24T03:34:46;16.80;99.90
25923;DHT22;13725;51.170;4.442;2023-06-24T03:37:12;16.80;99.90
25923;DHT22;13725;51.170;4.442;2023-06-24T03:39:40;16.80;99.90
25923;DHT22;13725;51.170;4.442;2023-06-24T03:42:06;16.80;99.90
25923;DHT22;13725;51.170;4.442;2023-06-24T03:44:32;16.80;99.90
25923;DHT22;13725;51.170;4.442;2023-06-24T03:46:58;16.80;99.90
25923;DHT22;13725;51.170;4.442;2023-06-24T03:49:24;16.80;99.90
25923;DHT22;13725;51.170;4.442;2023-06-24T03:51:50;16.80;99.90
25923;DHT22;13725;51.170;4.442;2023-06-24T03:54:15;16.90;99.90
25923;DHT22;13725;51.170;4.442;2023-06-24T03:56:41;16.80;99.90
25923;DHT22;13725;51.170;4.442;2023-06-24T03:59:07;16.90;99.90
25923;DHT22;13725;51.170;4.442;2023-06-24T04:01:33;16.90;99.90
25923;DHT22;13725;51.170;4.442;2023-06-24T04:03:59;16.90;99.90
25923;DHT22;13725;51.170;4.442;2023-06-24T04:06:25;16.90;99.90
25923;DHT22;13725;51.170;4.442;2023-06-24T04:08:52;16.90;99.90
25923;DHT22;13725;51.170;4.442;2023-06-24T04:11:19;17.00;99.90
25923;DHT22;13725;51.170;4.442;2023-06-24T04:13:45;16.90;99.90
25923;DHT22;13725;51.170;4.442;2023-06-24T04:16:11;16.90;99.90
25923;DHT22;13725;51.170;4.442;2023-06-24T04:18:37;17.00;99.90
25923;DHT22;13725;51.170;4.442;2023-06-24T04:21:06;16.90;99.90
25923;DHT22;13725;51.170;4.442;2023-06-24T04:23:32;17.10;99.90
25923;DHT22;13725;51.170;4.442;2023-06-24T04:26:00;17.00;99.90
25923;DHT22;13725;51.170;4.442;2023-06-24T04:28:25;17.10;99.90
25923;DHT22;13725;51.170;4.442;2023-06-24T04:30:52;17.00;99.90
25923;DHT22;13725;51.170;4.442;2023-06-24T04:33:18;17.10;99.90
25923;DHT22;13725;51.170;4.442;2023-06-24T04:35:44;17.20;99.90
25923;DHT22;13725;51.170;4.442;2023-06-24T04:38:10;17.20;99.90
25923;DHT22;13725;51.170;4.442;2023-06-24T04:40:37;17.30;99.90
25923;DHT22;13725;51.170;4.442;2023-06-24T04:43:03;17.20;99.90
25923;DHT22;13725;51.170;4.442;2023-06-24T04:45:30;17.30;99.90
25923;DHT22;13725;51.170;4.442;2023-06-24T04:47:56;17.40;99.90
25923;DHT22;13725;51.170;4.442;2023-06-24T04:50:21;17.40;99.90
25923;DHT22;13725;51.170;4.442;2023-06-24T04:52:56;17.40;99.90
25923;DHT22;13725;51.170;4.442;2023-06-24T04:55:22;17.50;99.90
25923;DHT22;13725;51.170;4.442;2023-06-24T04:57:48;17.50;99.90
25923;DHT22;13725;51.170;4.442;2023-06-24T05:00:14;17.60;99.90
25923;DHT22;13725;51.170;4.442;2023-06-24T05:02:40;17.70;99.90
25923;DHT22;13725;51.170;4.442;2023-06-24T05:05:06;17.80;99.90
25923;DHT22;13725;51.170;4.442;2023-06-24T05:07:32;17.90;99.90
25923;DHT22;13725;51.170;4.442;2023-06-24T05:09:58;17.80;99.90
25923;DHT22;13725;51.170;4.442;2023-06-24T05:12:23;17.90;99.90
25923;DHT22;13725;51.170;4.442;2023-06-24T05:14:50;17.90;99.90
25923;DHT22;13725;51.170;4.442;2023-06-24T05:17:18;17.90;99.90
25923;DHT22;13725;51.170;4.442;2023-06-24T05:19:44;18.00;99.90
25923;DHT22;13725;51.170;4.442;2023-06-24T05:22:10;18.00;99.90
25923;DHT22;13725;51.170;4.442;2023-06-24T05:24:35;18.00;99.90
25923;DHT22;13725;51.170;4.442;2023-06-24T05:27:05;18.10;99.90
25923;DHT22;13725;51.170;4.442;2023-06-24T05:29:32;18.20;99.90
25923;DHT22;13725;51.170;4.442;2023-06-24T05:31:57;18.30;99.90
25923;DHT22;13725;51.170;4.442;2023-06-24T05:34:24;18.40;99.90
25923;DHT22;13725;51.170;4.442;2023-06-24T05:36:51;18.50;99.90
25923;DHT22;13725;51.170;4.442;2023-06-24T05:39:17;18.40;99.90
25923;DHT22;13725;51.170;4.442;2023-06-24T05:41:43;18.60;99.90
25923;DHT22;13725;51.170;4.442;2023-06-24T05:44:09;18.60;99.90
25923;DHT22;13725;51.170;4.442;2023-06-24T05:46:37;18.70;99.90
25923;DHT22;13725;51.170;4.442;2023-06-24T05:49:03;18.80;99.90
25923;DHT22;13725;51.170;4.442;2023-06-24T05:51:29;18.90;99.90
25923;DHT22;13725;51.170;4.442;2023-06-24T05:53:55;19.00;99.90
25923;DHT22;13725;51.170;4.442;2023-06-24T05:56:21;19.10;99.90
25923;DHT22;13725;51.170;4.442;2023-06-24T05:58:50;19.20;99.90
25923;DHT22;13725;51.170;4.442;2023-06-24T06:01:15;19.30;99.90
25923;DHT22;13725;51.170;4.442;2023-06-24T06:03:41;19.40;99.90
25923;DHT22;13725;51.170;4.442;2023-06-24T06:06:07;19.50;99.90
25923;DHT22;13725;51.170;4.442;2023-06-24T06:08:33;19.60;99.90
25923;DHT22;13725;51.170;4.442;2023-06-24T06:11:00;19.70;99.90
25923;DHT22;13725;51.170;4.442;2023-06-24T06:13:28;20.00;99.90
25923;DHT22;13725;51.170;4.442;2023-06-24T06:15:54;20.20;99.90
25923;DHT22;13725;51.170;4.442;2023-06-24T06:18:20;20.90;99.90
25923;DHT22;13725;51.170;4.442;2023-06-24T06:20:46;22.50;99.90
25923;DHT22;13725;51.170;4.442;2023-06-24T06:23:12;24.50;99.90
25923;DHT22;13725;51.170;4.442;2023-06-24T06:25:38;26.30;99.90
25923;DHT22;13725;51.170;4.442;2023-06-24T06:28:04;27.80;99.90
25923;DHT22;13725;51.170;4.442;2023-06-24T06:30:30;29.10;99.90
25923;DHT22;13725;51.170;4.442;2023-06-24T06:32:56;30.20;99.90
25923;DHT22;13725;51.170;4.442;2023-06-24T06:35:21;31.00;99.90
25923;DHT22;13725;51.170;4.442;2023-06-24T06:37:47;31.70;99.90
25923;DHT22;13725;51.170;4.442;2023-06-24T06:40:21;32.50;99.90
25923;DHT22;13725;51.170;4.442;2023-06-24T06:42:47;33.10;97.60
25923;DHT22;13725;51.170;4.442;2023-06-24T06:45:13;33.70;95.00
25923;DHT22;13725;51.170;4.442;2023-06-24T06:47:38;34.00;93.10
25923;DHT22;13725;51.170;4.442;2023-06-24T06:50:05;34.40;91.60
25923;DHT22;13725;51.170;4.442;2023-06-24T06:52:31;34.90;90.20
25923;DHT22;13725;51.170;4.442;2023-06-24T06:54:56;35.30;88.10
25923;DHT22;13725;51.170;4.442;2023-06-24T06:57:22;35.70;85.70
25923;DHT22;13725;51.170;4.442;2023-06-24T06:59:48;36.10;83.10
25923;DHT22;13725;51.170;4.442;2023-06-24T07:02:17;36.30;81.10
25923;DHT22;13725;51.170;4.442;2023-06-24T07:04:42;36.60;79.90
25923;DHT22;13725;51.170;4.442;2023-06-24T07:07:08;36.80;78.60
25923;DHT22;13725;51.170;4.442;2023-06-24T07:09:34;37.20;77.30
25923;DHT22;13725;51.170;4.442;2023-06-24T07:12:00;37.50;75.60
25923;DHT22;13725;51.170;4.442;2023-06-24T07:14:26;37.80;74.90
25923;DHT22;13725;51.170;4.442;2023-06-24T07:16:52;38.00;73.30
25923;DHT22;13725;51.170;4.442;2023-06-24T07:19:18;38.00;73.00
25923;DHT22;13725;51.170;4.442;2023-06-24T07:21:43;38.20;72.10
25923;DHT22;13725;51.170;4.442;2023-06-24T07:24:09;38.50;70.70
25923;DHT22;13725;51.170;4.442;2023-06-24T07:26:35;38.60;70.10
25923;DHT22;13725;51.170;4.442;2023-06-24T07:29:01;38.70;69.20
25923;DHT22;13725;51.170;4.442;2023-06-24T07:31:27;38.90;69.20
25923;DHT22;13725;51.170;4.442;2023-06-24T07:33:52;39.20;68.40
25923;DHT22;13725;51.170;4.442;2023-06-24T07:36:18;39.50;67.60
25923;DHT22;13725;51.170;4.442;2023-06-24T07:38:44;39.80;67.30
25923;DHT22;13725;51.170;4.442;2023-06-24T07:41:10;40.30;66.70
25923;DHT22;13725;51.170;4.442;2023-06-24T07:43:36;40.50;65.20
25923;DHT22;13725;51.170;4.442;2023-06-24T07:46:02;40.90;64.30
25923;DHT22;13725;51.170;4.442;2023-06-24T07:48:27;41.30;63.60
25923;DHT22;13725;51.170;4.442;2023-06-24T07:50:53;41.60;62.60
25923;DHT22;13725;51.170;4.442;2023-06-24T07:53:19;41.90;62.20
25923;DHT22;13725;51.170;4.442;2023-06-24T07:55:45;42.10;61.40
25923;DHT22;13725;51.170;4.442;2023-06-24T07:58:12;42.40;60.90
25923;DHT22;13725;51.170;4.442;2023-06-24T08:00:38;42.30;60.20
25923;DHT22;13725;51.170;4.442;2023-06-24T08:03:04;42.40;59.50
25923;DHT22;13725;51.170;4.442;2023-06-24T08:05:29;42.60;59.50
25923;DHT22;13725;51.170;4.442;2023-06-24T08:07:55;42.80;58.70
25923;DHT22;13725;51.170;4.442;2023-06-24T08:10:21;43.00;58.70
25923;DHT22;13725;51.170;4.442;2023-06-24T08:12:52;43.20;58.40
25923;DHT22;13725;51.170;4.442;2023-06-24T08:15:18;43.40;57.90
25923;DHT22;13725;51.170;4.442;2023-06-24T08:17:44;43.40;57.60
25923;DHT22;13725;51.170;4.442;2023-06-24T08:20:10;43.70;57.10
25923;DHT22;13725;51.170;4.442;2023-06-24T08:22:36;43.90;57.00
25923;DHT22;13725;51.170;4.442;2023-06-24T08:25:01;44.10;55.70
25923;DHT22;13725;51.170;4.442;2023-06-24T08:27:27;43.80;55.90
25923;DHT22;13725;51.170;4.442;2023-06-24T08:29:54;43.70;56.70
25923;DHT22;13725;51.170;4.442;2023-06-24T08:32:20;44.10;56.90
25923;DHT22;13725;51.170;4.442;2023-06-24T08:34:46;44.20;55.30
25923;DHT22;13725;51.170;4.442;2023-06-24T08:37:12;44.30;55.60
25923;DHT22;13725;51.170;4.442;2023-06-24T08:39:38;44.40;55.50
25923;DHT22;13725;51.170;4.442;2023-06-24T08:42:04;44.50;54.00
25923;DHT22;13725;51.170;4.442;2023-06-24T08:44:30;44.70;54.00
25923;DHT22;13725;51.170;4.442;2023-06-24T08:46:56;44.90;54.10
25923;DHT22;13725;51.170;4.442;2023-06-24T08:49:28;45.20;54.00
25923;DHT22;13725;51.170;4.442;2023-06-24T08:52:08;45.40;53.10
25923;DHT22;13725;51.170;4.442;2023-06-24T08:54:36;45.40;53.70
25923;DHT22;13725;51.170;4.442;2023-06-24T08:57:03;45.60;52.50
25923;DHT22;13725;51.170;4.442;2023-06-24T08:59:32;45.60;52.80
25923;DHT22;13725;51.170;4.442;2023-06-24T09:01:59;45.80;53.40
25923;DHT22;13725;51.170;4.442;2023-06-24T09:04:24;46.10;52.50
25923;DHT22;13725;51.170;4.442;2023-06-24T09:06:50;45.70;51.60
25923;DHT22;13725;51.170;4.442;2023-06-24T09:09:19;45.50;51.40
25923;DHT22;13725;51.170;4.442;2023-06-24T09:11:55;45.80;51.50
25923;DHT22;13725;51.170;4.442;2023-06-24T09:14:22;46.10;51.60
25923;DHT22;13725;51.170;4.442;2023-06-24T09:16:59;46.20;51.20
25923;DHT22;13725;51.170;4.442;2023-06-24T09:19:29;46.60;51.30
25923;DHT22;13725;51.170;4.442;2023-06-24T09:21:56;46.70;51.20
25923;DHT22;13725;51.170;4.442;2023-06-24T09:24:27;46.30;51.30
25923;DHT22;13725;51.170;4.442;2023-06-24T09:26:55;46.60;51.50
25923;DHT22;13725;51.170;4.442;2023-06-24T09:29:25;46.90;50.20
25923;DHT22;13725;51.170;4.442;2023-06-24T09:31:51;46.70;50.00
25923;DHT22;13725;51.170;4.442;2023-06-24T09:34:27;46.40;49.90
25923;DHT22;13725;51.170;4.442;2023-06-24T09:36:57;46.50;49.50
25923;DHT22;13725;51.170;4.442;2023-06-24T09:39:24;46.20;49.20
25923;DHT22;13725;51.170;4.442;2023-06-24T09:42:00;46.40;50.40
25923;DHT22;13725;51.170;4.442;2023-06-24T09:44:29;46.20;49.50
25923;DHT22;13725;51.170;4.442;2023-06-24T09:46:55;46.10;49.00
25923;DHT22;13725;51.170;4.442;2023-06-24T09:49:23;46.40;49.30
25923;DHT22;13725;51.170;4.442;2023-06-24T09:51:56;46.40;49.10
25923;DHT22;13725;51.170;4.442;2023-06-24T09:54:28;46.40;48.20
25923;DHT22;13725;51.170;4.442;2023-06-24T09:56:58;45.80;46.90
25923;DHT22;13725;51.170;4.442;2023-06-24T09:59:25;45.20;48.00
25923;DHT22;13725;51.170;4.442;2023-06-24T10:01:53;45.70;49.70
25923;DHT22;13725;51.170;4.442;2023-06-24T10:04:20;46.40;49.40
25923;DHT22;13725;51.170;4.442;2023-06-24T10:06:47;47.00;49.40
25923;DHT22;13725;51.170;4.442;2023-06-24T10:09:15;47.50;47.70
25923;DHT22;13725;51.170;4.442;2023-06-24T10:11:45;47.90;47.30
25923;DHT22;13725;51.170;4.442;2023-06-24T10:14:11;48.00;46.70
25923;DHT22;13725;51.170;4.442;2023-06-24T10:16:37;47.40;46.70
25923;DHT22;13725;51.170;4.442;2023-06-24T10:19:03;47.10;46.90
25923;DHT22;13725;51.170;4.442;2023-06-24T10:21:54;46.80;47.40
25923;DHT22;13725;51.170;4.442;2023-06-24T10:24:33;47.10;47.10
25923;DHT22;13725;51.170;4.442;2023-06-24T10:27:04;47.40;46.60
25923;DHT22;13725;51.170;4.442;2023-06-24T10:29:37;47.70;46.60
25923;DHT22;13725;51.170;4.442;2023-06-24T10:32:05;48.00;45.90
25923;DHT22;13725;51.170;4.442;2023-06-24T10:34:33;48.00;46.80
25923;DHT22;13725;51.170;4.442;2023-06-24T10:39:56;48.10;46.60
25923;DHT22;13725;51.170;4.442;2023-06-24T10:42:39;48.20;45.30
25923;DHT22;13725;51.170;4.442;2023-06-24T10:47:35;48.80;45.90
25923;DHT22;13725;51.170;4.442;2023-06-24T10:50:01;48.80;45.80
25923;DHT22;13725;51.170;4.442;2023-06-24T10:52:27;49.00;46.20
25923;DHT22;13725;51.170;4.442;2023-06-24T10:54:53;49.00;46.20
25923;DHT22;13725;51.170;4.442;2023-06-24T10:57:24;49.00;45.40
25923;DHT22;13725;51.170;4.442;2023-06-24T10:59:51;48.90;45.30
25923;DHT22;13725;51.170;4.442;2023-06-24T11:02:18;49.00;45.10
25923;DHT22;13725;51.170;4.442;2023-06-24T11:04:49;48.90;45.10
25923;DHT22;13725;51.170;4.442;2023-06-24T11:07:21;49.00;46.00
25923;DHT22;13725;51.170;4.442;2023-06-24T11:09:55;49.10;45.80
25923;DHT22;13725;51.170;4.442;2023-06-24T11:12:26;49.30;44.50
25923;DHT22;13725;51.170;4.442;2023-06-24T11:14:55;49.30;45.10
25923;DHT22;13725;51.170;4.442;2023-06-24T11:17:22;49.10;43.70
25923;DHT22;13725;51.170;4.442;2023-06-24T11:19:48;49.00;44.30
25923;DHT22;13725;51.170;4.442;2023-06-24T11:22:15;49.10;43.60
25923;DHT22;13725;51.170;4.442;2023-06-24T11:24:41;49.10;45.00
25923;DHT22;13725;51.170;4.442;2023-06-24T11:27:07;49.10;44.50
25923;DHT22;13725;51.170;4.442;2023-06-24T11:29:34;49.10;44.40
25923;DHT22;13725;51.170;4.442;2023-06-24T11:32:01;49.20;44.60
25923;DHT22;13725;51.170;4.442;2023-06-24T11:34:28;49.40;45.00
25923;DHT22;13725;51.170;4.442;2023-06-24T11:36:54;49.20;44.80
25923;DHT22;13725;51.170;4.442;2023-06-24T11:39:21;49.10;44.00
25923;DHT22;13725;51.170;4.442;2023-06-24T11:41:48;49.30;43.40
25923;DHT22;13725;51.170;4.442;2023-06-24T11:44:14;49.20;43.90
25923;DHT22;13725;51.170;4.442;2023-06-24T11:46:40;49.10;43.50
25923;DHT22;13725;51.170;4.442;2023-06-24T11:49:09;49.00;43.30
25923;DHT22;13725;51.170;4.442;2023-06-24T11:51:36;48.90;43.60
25923;DHT22;13725;51.170;4.442;2023-06-24T11:54:05;48.80;43.50
25923;DHT22;13725;51.170;4.442;2023-06-24T11:56:39;48.80;43.20
25923;DHT22;13725;51.170;4.442;2023-06-24T11:59:06;48.80;42.40
25923;DHT22;13725;51.170;4.442;2023-06-24T12:01:33;48.80;43.50
25923;DHT22;13725;51.170;4.442;2023-06-24T12:04:10;48.70;42.90
25923;DHT22;13725;51.170;4.442;2023-06-24T12:06:36;48.80;43.70
25923;DHT22;13725;51.170;4.442;2023-06-24T12:09:02;48.90;42.10
25923;DHT22;13725;51.170;4.442;2023-06-24T12:11:28;49.10;42.80
25923;DHT22;13725;51.170;4.442;2023-06-24T12:13:54;49.00;43.00
25923;DHT22;13725;51.170;4.442;2023-06-24T12:16:21;49.10;43.10
25923;DHT22;13725;51.170;4.442;2023-06-24T12:18:48;49.10;42.40
25923;DHT22;13725;51.170;4.442;2023-06-24T12:21:14;49.10;42.40
25923;DHT22;13725;51.170;4.442;2023-06-24T12:23:40;49.00;42.20
25923;DHT22;13725;51.170;4.442;2023-06-24T12:26:05;48.80;41.70
25923;DHT22;13725;51.170;4.442;2023-06-24T12:28:31;48.70;43.20
25923;DHT22;13725;51.170;4.442;2023-06-24T12:30:58;48.80;41.90
25923;DHT22;13725;51.170;4.442;2023-06-24T12:33:23;48.80;42.30
25923;DHT22;13725;51.170;4.442;2023-06-24T12:35:49;48.80;42.10
25923;DHT22;13725;51.170;4.442;2023-06-24T12:38:15;48.50;42.60
25923;DHT22;13725;51.170;4.442;2023-06-24T12:40:41;48.60;42.10
25923;DHT22;13725;51.170;4.442;2023-06-24T12:43:07;48.70;42.90
25923;DHT22;13725;51.170;4.442;2023-06-24T12:45:33;48.10;41.50
25923;DHT22;13725;51.170;4.442;2023-06-24T12:47:59;47.40;42.40
25923;DHT22;13725;51.170;4.442;2023-06-24T12:50:25;47.40;43.40
25923;DHT22;13725;51.170;4.442;2023-06-24T12:52:51;47.30;42.10
25923;DHT22;13725;51.170;4.442;2023-06-24T12:55:16;47.30;43.20
25923;DHT22;13725;51.170;4.442;2023-06-24T12:57:43;47.40;43.60
25923;DHT22;13725;51.170;4.442;2023-06-24T13:00:09;47.00;42.00
25923;DHT22;13725;51.170;4.442;2023-06-24T13:02:37;46.80;43.30
25923;DHT22;13725;51.170;4.442;2023-06-24T13:05:04;47.10;43.20
25923;DHT22;13725;51.170;4.442;2023-06-24T13:07:30;47.10;44.10
25923;DHT22;13725;51.170;4.442;2023-06-24T13:09:56;47.30;43.70
25923;DHT22;13725;51.170;4.442;2023-06-24T13:12:22;47.20;43.90
25923;DHT22;13725;51.170;4.442;2023-06-24T13:14:48;47.00;43.10
25923;DHT22;13725;51.170;4.442;2023-06-24T13:17:13;47.20;44.20
25923;DHT22;13725;51.170;4.442;2023-06-24T13:19:39;47.10;44.00
25923;DHT22;13725;51.170;4.442;2023-06-24T13:22:05;46.70;43.20
25923;DHT22;13725;51.170;4.442;2023-06-24T13:24:31;46.70;43.90
25923;DHT22;13725;51.170;4.442;2023-06-24T13:26:56;46.70;43.90
25923;DHT22;13725;51.170;4.442;2023-06-24T13:29:22;46.60;44.40
25923;DHT22;13725;51.170;4.442;2023-06-24T13:31:48;46.80;43.10
25923;DHT22;13725;51.170;4.442;2023-06-24T13:34:13;46.60;43.70
25923;DHT22;13725;51.170;4.442;2023-06-24T13:36:39;46.10;44.10
25923;DHT22;13725;51.170;4.442;2023-06-24T13:39:07;44.50;42.30
25923;DHT22;13725;51.170;4.442;2023-06-24T13:41:34;42.50;43.80
25923;DHT22;13725;51.170;4.442;2023-06-24T13:44:03;41.00;46.90
25923;DHT22;13725;51.170;4.442;2023-06-24T13:46:30;39.70;48.00
25923;DHT22;13725;51.170;4.442;2023-06-24T13:48:57;38.60;50.30
25923;DHT22;13725;51.170;4.442;2023-06-24T13:51:23;37.80;50.80
25923;DHT22;13725;51.170;4.442;2023-06-24T13:53:51;37.10;51.90
25923;DHT22;13725;51.170;4.442;2023-06-24T13:56:18;36.40;53.20
25923;DHT22;13725;51.170;4.442;2023-06-24T13:58:45;35.90;53.50
25923;DHT22;13725;51.170;4.442;2023-06-24T14:01:11;35.30;54.70
25923;DHT22;13725;51.170;4.442;2023-06-24T14:03:37;34.80;55.60
25923;DHT22;13725;51.170;4.442;2023-06-24T14:06:03;34.40;53.80
25923;DHT22;13725;51.170;4.442;2023-06-24T14:08:29;34.00;56.20
25923;DHT22;13725;51.170;4.442;2023-06-24T14:10:56;33.70;55.70
25923;DHT22;13725;51.170;4.442;2023-06-24T14:13:22;33.40;55.90
25923;DHT22;13725;51.170;4.442;2023-06-24T14:15:48;33.20;57.90
25923;DHT22;13725;51.170;4.442;2023-06-24T14:18:14;33.10;57.20
25923;DHT22;13725;51.170;4.442;2023-06-24T14:20:40;32.80;55.00
25923;DHT22;13725;51.170;4.442;2023-06-24T14:23:05;32.70;57.40
25923;DHT22;13725;51.170;4.442;2023-06-24T14:25:31;32.60;57.10
25923;DHT22;13725;51.170;4.442;2023-06-24T14:27:57;32.60;57.90
25923;DHT22;13725;51.170;4.442;2023-06-24T14:30:24;32.50;57.10
25923;DHT22;13725;51.170;4.442;2023-06-24T14:32:50;32.30;57.00
25923;DHT22;13725;51.170;4.442;2023-06-24T14:35:15;32.10;58.20
25923;DHT22;13725;51.170;4.442;2023-06-24T14:37:41;31.90;59.60
25923;DHT22;13725;51.170;4.442;2023-06-24T14:40:08;31.70;58.70
25923;DHT22;13725;51.170;4.442;2023-06-24T14:42:36;31.70;56.80
25923;DHT22;13725;51.170;4.442;2023-06-24T14:45:01;31.50;57.70
25923;DHT22;13725;51.170;4.442;2023-06-24T14:47:27;31.50;60.00
25923;DHT22;13725;51.170;4.442;2023-06-24T14:49:53;31.50;60.90
25923;DHT22;13725;51.170;4.442;2023-06-24T14:52:18;31.40;58.40
25923;DHT22;13725;51.170;4.442;2023-06-24T14:54:46;31.30;58.80
25923;DHT22;13725;51.170;4.442;2023-06-24T14:57:13;31.20;59.70
25923;DHT22;13725;51.170;4.442;2023-06-24T14:59:38;31.10;56.90
25923;DHT22;13725;51.170;4.442;2023-06-24T15:02:04;30.90;58.40
25923;DHT22;13725;51.170;4.442;2023-06-24T15:04:30;30.70;58.80
25923;DHT22;13725;51.170;4.442;2023-06-24T15:06:56;30.50;58.50
25923;DHT22;13725;51.170;4.442;2023-06-24T15:09:23;30.50;61.80
25923;DHT22;13725;51.170;4.442;2023-06-24T15:11:49;30.40;59.50
25923;DHT22;13725;51.170;4.442;2023-06-24T15:14:14;30.20;59.60
25923;DHT22;13725;51.170;4.442;2023-06-24T15:16:40;30.20;59.60
25923;DHT22;13725;51.170;4.442;2023-06-24T15:19:07;30.20;61.00
25923;DHT22;13725;51.170;4.442;2023-06-24T15:21:32;30.10;60.00
25923;DHT22;13725;51.170;4.442;2023-06-24T15:23:58;29.90;58.30
25923;DHT22;13725;51.170;4.442;2023-06-24T15:26:24;30.00;59.40
25923;DHT22;13725;51.170;4.442;2023-06-24T15:28:49;29.90;59.60
25923;DHT22;13725;51.170;4.442;2023-06-24T15:31:15;30.00;63.70
25923;DHT22;13725;51.170;4.442;2023-06-24T15:33:41;30.10;64.80
25923;DHT22;13725;51.170;4.442;2023-06-24T15:36:06;30.10;64.90
25923;DHT22;13725;51.170;4.442;2023-06-24T15:38:42;30.10;64.90
25923;DHT22;13725;51.170;4.442;2023-06-24T15:41:07;30.10;65.20